sensor_id;sensor_type;location;lat;lon;timestamp;temperature;humidity
24176;DHT22;12324;48.146;11.502;2024-01-10T00:00:15;-7.10;99.90
24176;DHT22;12324;48.146;11.502;2024-01-10T00:02:42;-7.00;99.90
24176;DHT22;12324;48.146;11.502;2024-01-10T00:05:08;-7.00;99.90
24176;DHT22;12324;48.146;11.502;2024-01-10T00:07:35;-7.00;99.90
24176;DHT22;12324;48.146;11.502;2024-01-10T00:10:04;-7.00;99.90
24176;DHT22;12324;48.146;11.502;2024-01-10T00:12:31;-7.00;99.90
24176;DHT22;12324;48.146;11.502;2024-01-10T00:15:04;-7.20;99.90
24176;DHT22;12324;48.146;11.502;2024-01-10T00:17:31;-7.10;99.90
24176;DHT22;12324;48.146;11.502;2024-01-10T00:19:58;-7.10;99.90
24176;DHT22;12324;48.146;11.502;2024-01-10T00:22:25;-6.90;99.90
24176;DHT22;12324;48.146;11.502;2024-01-10T00:24:51;-7.00;99.90
24176;DHT22;12324;48.146;11.502;2024-01-10T00:27:18;-7.00;99.90
24176;DHT22;12324;48.146;11.502;2024-01-10T00:29:45;-7.00;99.90
24176;DHT22;12324;48.146;11.502;2024-01-10T00:32:12;-6.90;99.90
24176;DHT22;12324;48.146;11.502;2024-01-10T00:34:38;-6.80;99.90
24176;DHT22;12324;48.146;11.502;2024-01-10T00:37:05;-6.80;99.90
24176;DHT22;12324;48.146;11.502;2024-01-10T00:39:32;-6.80;99.90
24176;DHT22;12324;48.146;11.502;2024-01-10T00:41:59;-6.90;99.90
24176;DHT22;12324;48.146;11.502;2024-01-10T00:44:26;-6.80;99.90
24176;DHT22;12324;48.146;11.502;2024-01-10T00:46:52;-6.80;99.90
24176;DHT22;12324;48.146;11.502;2024-01-10T00:49:19;-6.70;99.90
24176;DHT22;12324;48.146;11.502;2024-01-10T00:51:47;-6.60;99.90
24176;DHT22;12324;48.146;11.502;2024-01-10T00:54:14;-6.60;99.90
24176;DHT22;12324;48.146;11.502;2024-01-10T00:56:41;-6.60;99.90
24176;DHT22;12324;48.146;11.502;2024-01-10T00:59:07;-6.60;99.90
24176;DHT22;12324;48.146;11.502;2024-01-10T01:01:34;-6.50;99.90
24176;DHT22;12324;48.146;11.502;2024-01-10T01:04:01;-6.60;99.90
24176;DHT22;12324;48.146;11.502;2024-01-10T01:06:28;-6.50;99.90
24176;DHT22;12324;48.146;11.502;2024-01-10T01:08:55;-6.40;99.90
24176;DHT22;12324;48.146;11.502;2024-01-10T01:11:23;-6.50;99.90
24176;DHT22;12324;48.146;11.502;2024-01-10T01:13:50;-6.50;99.90
24176;DHT22;12324;48.146;11.502;2024-01-10T01:16:17;-6.50;99.90
24176;DHT22;12324;48.146;11.502;2024-01-10T01:18:44;-6.50;99.90
24176;DHT22;12324;48.146;11.502;2024-01-10T01:21:12;-6.50;99.90
24176;DHT22;12324;48.146;11.502;2024-01-10T01:23:38;-6.50;99.90
24176;DHT22;12324;48.146;11.502;2024-01-10T01:26:08;-6.50;99.90
24176;DHT22;12324;48.146;11.502;2024-01-10T01:28:35;-6.50;99.90
24176;DHT22;12324;48.146;11.502;2024-01-10T01:31:02;-6.60;99.90
24176;DHT22;12324;48.146;11.502;2024-01-10T01:33:29;-6.40;99.90
24176;DHT22;12324;48.146;11.502;2024-01-10T01:35:56;-6.40;99.90
24176;DHT22;12324;48.146;11.502;2024-01-10T01:38:23;-6.30;99.90
24176;DHT22;12324;48.146;11.502;2024-01-10T01:40:50;-6.40;99.90
24176;DHT22;12324;48.146;11.502;2024-01-10T01:43:24;-6.30;99.90
24176;DHT22;12324;48.146;11.502;2024-01-10T01:45:55;-6.30;99.90
24176;DHT22;12324;48.146;11.502;2024-01-10T01:48:23;-6.30;99.90
24176;DHT22;12324;48.146;11.502;2024-01-10T01:50:57;-6.30;99.90
24176;DHT22;12324;48.146;11.502;2024-01-10T01:53:25;-6.30;99.90
24176;DHT22;12324;48.146;11.502;2024-01-10T01:55:52;-6.30;99.90
24176;DHT22;12324;48.146;11.502;2024-01-10T01:58:20;-6.30;99.90
24176;DHT22;12324;48.146;11.502;2024-01-10T02:00:47;-6.40;99.90
24176;DHT22;12324;48.146;11.502;2024-01-10T02:03:14;-6.40;99.90
24176;DHT22;12324;48.146;11.502;2024-01-10T02:05:42;-6.50;99.90
24176;DHT22;12324;48.146;11.502;2024-01-10T02:08:09;-6.40;99.90
24176;DHT22;12324;48.146;11.502;2024-01-10T02:10:36;-6.30;99.90
24176;DHT22;12324;48.146;11.502;2024-01-10T02:13:03;-6.20;99.90
24176;DHT22;12324;48.146;11.502;2024-01-10T02:15:30;-6.20;99.90
24176;DHT22;12324;48.146;11.502;2024-01-10T02:17:57;-6.20;99.90
24176;DHT22;12324;48.146;11.502;2024-01-10T02:20:23;-6.30;99.90
24176;DHT22;12324;48.146;11.502;2024-01-10T02:22:50;-6.30;99.90
24176;DHT22;12324;48.146;11.502;2024-01-10T02:25:17;-6.40;99.90
24176;DHT22;12324;48.146;11.502;2024-01-10T02:27:44;-6.40;99.90
24176;DHT22;12324;48.146;11.502;2024-01-10T02:30:11;-6.40;99.90
24176;DHT22;12324;48.146;11.502;2024-01-10T02:32:38;-6.40;99.90
24176;DHT22;12324;48.146;11.502;2024-01-10T02:35:06;-6.40;99.90
24176;DHT22;12324;48.146;11.502;2024-01-10T02:37:33;-6.30;99.90
24176;DHT22;12324;48.146;11.502;2024-01-10T02:40:00;-6.40;99.90
24176;DHT22;12324;48.146;11.502;2024-01-10T02:42:28;-6.30;99.90
24176;DHT22;12324;48.146;11.502;2024-01-10T02:44:55;-6.30;99.90
24176;DHT22;12324;48.146;11.502;2024-01-10T02:47:22;-6.40;99.90
24176;DHT22;12324;48.146;11.502;2024-01-10T02:49:49;-6.30;99.90
24176;DHT22;12324;48.146;11.502;2024-01-10T02:52:16;-6.40;99.90
24176;DHT22;12324;48.146;11.502;2024-01-10T02:54:42;-6.40;99.90
24176;DHT22;12324;48.146;11.502;2024-01-10T02:57:09;-6.30;99.90
24176;DHT22;12324;48.146;11.502;2024-01-10T02:59:36;-6.30;99.90
24176;DHT22;12324;48.146;11.502;2024-01-10T03:02:03;-6.30;99.90
24176;DHT22;12324;48.146;11.502;2024-01-10T03:04:30;-6.30;99.90
24176;DHT22;12324;48.146;11.502;2024-01-10T03:06:57;-6.20;99.90
24176;DHT22;12324;48.146;11.502;2024-01-10T03:09:24;-6.30;99.90
24176;DHT22;12324;48.146;11.502;2024-01-10T03:11:50;-6.20;99.90
24176;DHT22;12324;48.146;11.502;2024-01-10T03:14:17;-6.10;99.90
24176;DHT22;12324;48.146;11.502;2024-01-10T03:16:44;-6.00;99.90
24176;DHT22;12324;48.146;11.502;2024-01-10T03:19:12;-6.00;99.90
24176;DHT22;12324;48.146;11.502;2024-01-10T03:21:39;-6.10;99.90
24176;DHT22;12324;48.146;11.502;2024-01-10T03:24:07;-6.10;99.90
24176;DHT22;12324;48.146;11.502;2024-01-10T03:26:34;-6.10;99.90
24176;DHT22;12324;48.146;11.502;2024-01-10T03:29:01;-6.30;99.90
24176;DHT22;12324;48.146;11.502;2024-01-10T03:31:28;-6.20;99.90
24176;DHT22;12324;48.146;11.502;2024-01-10T03:33:57;-6.10;99.90
24176;DHT22;12324;48.146;11.502;2024-01-10T03:36:25;-6.20;99.90
24176;DHT22;12324;48.146;11.502;2024-01-10T03:38:51;-6.10;99.90
24176;DHT22;12324;48.146;11.502;2024-01-10T03:41:20;-6.10;99.90
24176;DHT22;12324;48.146;11.502;2024-01-10T03:43:47;-6.00;99.90
24176;DHT22;12324;48.146;11.502;2024-01-10T03:46:15;-6.10;99.90
24176;DHT22;12324;48.146;11.502;2024-01-10T03:48:44;-6.10;99.90
24176;DHT22;12324;48.146;11.502;2024-01-10T03:51:19;-5.90;99.90
24176;DHT22;12324;48.146;11.502;2024-01-10T03:53:46;-5.90;99.90
24176;DHT22;12324;48.146;11.502;2024-01-10T03:56:12;-6.00;99.90
24176;DHT22;12324;48.146;11.502;2024-01-10T03:58:40;-6.00;99.90
24176;DHT22;12324;48.146;11.502;2024-01-10T04:01:07;-6.00;99.90
24176;DHT22;12324;48.146;11.502;2024-01-10T04:03:35;-5.90;99.90
24176;DHT22;12324;48.146;11.502;2024-01-10T04:06:03;-5.90;99.90
24176;DHT22;12324;48.146;11.502;2024-01-10T04:08:30;-6.00;99.90
24176;DHT22;12324;48.146;11.502;2024-01-10T04:10:58;-5.90;99.90
24176;DHT22;12324;48.146;11.502;2024-01-10T04:13:25;-6.00;99.90
24176;DHT22;12324;48.146;11.502;2024-01-10T04:15:52;-6.10;99.90
24176;DHT22;12324;48.146;11.502;2024-01-10T04:18:19;-6.00;99.90
24176;DHT22;12324;48.146;11.502;2024-01-10T04:20:48;-6.00;99.90
24176;DHT22;12324;48.146;11.502;2024-01-10T04:25:42;-5.80;99.90
24176;DHT22;12324;48.146;11.502;2024-01-10T04:28:09;-5.70;99.90
24176;DHT22;12324;48.146;11.502;2024-01-10T04:30:35;-5.70;99.90
24176;DHT22;12324;48.146;11.502;2024-01-10T04:33:02;-5.80;99.90
24176;DHT22;12324;48.146;11.502;2024-01-10T04:35:29;-5.80;99.90
24176;DHT22;12324;48.146;11.502;2024-01-10T04:37:56;-5.80;99.90
24176;DHT22;12324;48.146;11.502;2024-01-10T04:40:23;-5.80;99.90
24176;DHT22;12324;48.146;11.502;2024-01-10T04:42:49;-5.70;99.90
24176;DHT22;12324;48.146;11.502;2024-01-10T04:45:17;-5.80;99.90
24176;DHT22;12324;48.146;11.502;2024-01-10T04:47:44;-5.70;99.90
24176;DHT22;12324;48.146;11.502;2024-01-10T04:50:12;-5.80;99.90
24176;DHT22;12324;48.146;11.502;2024-01-10T04:52:40;-5.70;99.90
24176;DHT22;12324;48.146;11.502;2024-01-10T04:55:07;-5.80;99.90
24176;DHT22;12324;48.146;11.502;2024-01-10T04:57:35;-5.70;99.90
24176;DHT22;12324;48.146;11.502;2024-01-10T05:00:03;-5.60;99.90
24176;DHT22;12324;48.146;11.502;2024-01-10T05:02:31;-5.70;99.90
24176;DHT22;12324;48.146;11.502;2024-01-10T05:04:58;-5.60;99.90
24176;DHT22;12324;48.146;11.502;2024-01-10T05:07:26;-5.60;99.90
24176;DHT22;12324;48.146;11.502;2024-01-10T05:09:53;-5.60;99.90
24176;DHT22;12324;48.146;11.502;2024-01-10T05:12:20;-5.60;99.90
24176;DHT22;12324;48.146;11.502;2024-01-10T05:14:47;-5.60;99.90
24176;DHT22;12324;48.146;11.502;2024-01-10T05:17:13;-5.50;99.90
24176;DHT22;12324;48.146;11.502;2024-01-10T05:19:40;-5.60;99.90
24176;DHT22;12324;48.146;11.502;2024-01-10T05:22:07;-5.60;99.90
24176;DHT22;12324;48.146;11.502;2024-01-10T05:24:34;-5.60;99.90
24176;DHT22;12324;48.146;11.502;2024-01-10T05:27:02;-5.60;99.90
24176;DHT22;12324;48.146;11.502;2024-01-10T05:29:29;-5.50;99.90
24176;DHT22;12324;48.146;11.502;2024-01-10T05:31:56;-5.50;99.90
24176;DHT22;12324;48.146;11.502;2024-01-10T05:34:23;-5.50;99.90
24176;DHT22;12324;48.146;11.502;2024-01-10T05:36:50;-5.40;99.90
24176;DHT22;12324;48.146;11.502;2024-01-10T05:39:17;-5.60;99.90
24176;DHT22;12324;48.146;11.502;2024-01-10T05:41:47;-5.60;99.90
24176;DHT22;12324;48.146;11.502;2024-01-10T05:44:14;-5.60;99.90
24176;DHT22;12324;48.146;11.502;2024-01-10T05:46:44;-5.70;99.90
24176;DHT22;12324;48.146;11.502;2024-01-10T05:49:11;-5.70;99.90
24176;DHT22;12324;48.146;11.502;2024-01-10T05:51:38;-5.60;99.90
24176;DHT22;12324;48.146;11.502;2024-01-10T05:54:05;-5.70;99.90
24176;DHT22;12324;48.146;11.502;2024-01-10T05:56:33;-5.60;99.90
24176;DHT22;12324;48.146;11.502;2024-01-10T05:59:00;-5.70;99.90
24176;DHT22;12324;48.146;11.502;2024-01-10T06:01:28;-5.70;99.90
24176;DHT22;12324;48.146;11.502;2024-01-10T06:03:55;-5.70;99.90
24176;DHT22;12324;48.146;11.502;2024-01-10T06:06:23;-5.80;99.90
24176;DHT22;12324;48.146;11.502;2024-01-10T06:08:50;-5.50;99.90
24176;DHT22;12324;48.146;11.502;2024-01-10T06:11:18;-5.50;99.90
24176;DHT22;12324;48.146;11.502;2024-01-10T06:13:45;-5.70;99.90
24176;DHT22;12324;48.146;11.502;2024-01-10T06:16:20;-5.70;99.90
24176;DHT22;12324;48.146;11.502;2024-01-10T06:18:47;-5.80;99.90
24176;DHT22;12324;48.146;11.502;2024-01-10T06:21:15;-5.80;99.90
24176;DHT22;12324;48.146;11.502;2024-01-10T06:23:42;-5.80;99.90
24176;DHT22;12324;48.146;11.502;2024-01-10T06:26:09;-5.70;99.90
24176;DHT22;12324;48.146;11.502;2024-01-10T06:28:37;-5.70;99.90
24176;DHT22;12324;48.146;11.502;2024-01-10T06:31:08;-5.70;99.90
24176;DHT22;12324;48.146;11.502;2024-01-10T06:33:38;-5.70;99.90
24176;DHT22;12324;48.146;11.502;2024-01-10T06:36:05;-5.70;99.90
24176;DHT22;12324;48.146;11.502;2024-01-10T06:38:32;-5.70;99.90
24176;DHT22;12324;48.146;11.502;2024-01-10T06:40:59;-5.70;99.90
24176;DHT22;12324;48.146;11.502;2024-01-10T06:43:26;-5.70;99.90
24176;DHT22;12324;48.146;11.502;2024-01-10T06:45:53;-5.80;99.90
24176;DHT22;12324;48.146;11.502;2024-01-10T06:48:20;-5.80;99.90
24176;DHT22;12324;48.146;11.502;2024-01-10T06:50:46;-5.90;99.90
24176;DHT22;12324;48.146;11.502;2024-01-10T06:53:13;-5.90;99.90
24176;DHT22;12324;48.146;11.502;2024-01-10T06:58:07;-6.00;99.90
24176;DHT22;12324;48.146;11.502;2024-01-10T07:00:34;-3.10;99.90
24176;DHT22;12324;48.146;11.502;2024-01-10T07:03:01;-3.20;99.90
24176;DHT22;12324;48.146;11.502;2024-01-10T07:07:59;-3.30;99.90
24176;DHT22;12324;48.146;11.502;2024-01-10T07:12:55;-3.80;99.90
24176;DHT22;12324;48.146;11.502;2024-01-10T07:15:22;-5.30;99.90
24176;DHT22;12324;48.146;11.502;2024-01-10T07:17:49;-5.40;99.90
24176;DHT22;12324;48.146;11.502;2024-01-10T07:20:16;-5.60;99.90
24176;DHT22;12324;48.146;11.502;2024-01-10T07:22:43;-5.80;99.90
24176;DHT22;12324;48.146;11.502;2024-01-10T07:25:11;-5.80;99.90
24176;DHT22;12324;48.146;11.502;2024-01-10T07:27:41;-5.80;99.90
24176;DHT22;12324;48.146;11.502;2024-01-10T07:30:08;-5.80;99.90
24176;DHT22;12324;48.146;11.502;2024-01-10T07:32:42;-5.80;99.90
24176;DHT22;12324;48.146;11.502;2024-01-10T07:35:10;-5.90;99.90
24176;DHT22;12324;48.146;11.502;2024-01-10T07:37:38;-6.00;99.90
24176;DHT22;12324;48.146;11.502;2024-01-10T07:40:06;-6.00;99.90
24176;DHT22;12324;48.146;11.502;2024-01-10T07:42:33;-6.00;99.90
24176;DHT22;12324;48.146;11.502;2024-01-10T07:45:01;-5.90;99.90
24176;DHT22;12324;48.146;11.502;2024-01-10T07:47:31;-5.90;99.90
24176;DHT22;12324;48.146;11.502;2024-01-10T07:49:58;-5.90;99.90
24176;DHT22;12324;48.146;11.502;2024-01-10T07:52:27;-5.90;99.90
24176;DHT22;12324;48.146;11.502;2024-01-10T07:54:53;-5.90;99.90
24176;DHT22;12324;48.146;11.502;2024-01-10T07:57:20;-5.80;99.90
24176;DHT22;12324;48.146;11.502;2024-01-10T08:02:14;-5.70;99.90
24176;DHT22;12324;48.146;11.502;2024-01-10T08:04:41;-5.60;99.90
24176;DHT22;12324;48.146;11.502;2024-01-10T08:07:08;-5.50;99.90
24176;DHT22;12324;48.146;11.502;2024-01-10T08:09:35;-5.50;99.90
24176;DHT22;12324;48.146;11.502;2024-01-10T08:12:02;-5.50;99.90
24176;DHT22;12324;48.146;11.502;2024-01-10T08:14:28;-5.40;99.90
24176;DHT22;12324;48.146;11.502;2024-01-10T08:16:55;-5.40;99.90
24176;DHT22;12324;48.146;11.502;2024-01-10T08:19:25;-5.40;99.90
24176;DHT22;12324;48.146;11.502;2024-01-10T08:21:55;-5.30;99.90
24176;DHT22;12324;48.146;11.502;2024-01-10T08:24:22;-5.20;99.90
24176;DHT22;12324;48.146;11.502;2024-01-10T08:26:49;-5.10;99.90
24176;DHT22;12324;48.146;11.502;2024-01-10T08:29:18;-5.00;99.90
24176;DHT22;12324;48.146;11.502;2024-01-10T08:31:47;-5.10;99.90
24176;DHT22;12324;48.146;11.502;2024-01-10T08:34:14;-5.10;99.90
24176;DHT22;12324;48.146;11.502;2024-01-10T08:36:41;-4.90;99.90
24176;DHT22;12324;48.146;11.502;2024-01-10T08:39:08;-5.00;99.90
24176;DHT22;12324;48.146;11.502;2024-01-10T08:41:34;-4.80;99.90
24176;DHT22;12324;48.146;11.502;2024-01-10T08:44:03;-4.80;99.90
24176;DHT22;12324;48.146;11.502;2024-01-10T08:46:31;-4.70;99.90
24176;DHT22;12324;48.146;11.502;2024-01-10T08:48:58;-4.70;99.90
24176;DHT22;12324;48.146;11.502;2024-01-10T08:58:47;-4.80;99.90
24176;DHT22;12324;48.146;11.502;2024-01-10T09:01:13;-4.60;99.90
24176;DHT22;12324;48.146;11.502;2024-01-10T09:03:43;-4.40;99.90
24176;DHT22;12324;48.146;11.502;2024-01-10T09:06:10;-4.20;99.90
24176;DHT22;12324;48.146;11.502;2024-01-10T09:08:38;-4.10;99.90
24176;DHT22;12324;48.146;11.502;2024-01-10T09:11:06;-4.00;99.90
24176;DHT22;12324;48.146;11.502;2024-01-10T09:13:33;-3.80;99.90
24176;DHT22;12324;48.146;11.502;2024-01-10T09:16:01;-3.60;99.90
24176;DHT22;12324;48.146;11.502;2024-01-10T09:30:47;-3.60;99.90
24176;DHT22;12324;48.146;11.502;2024-01-10T09:55:40;-3.40;99.90
24176;DHT22;12324;48.146;11.502;2024-01-10T09:58:09;-2.90;99.90
24176;DHT22;12324;48.146;11.502;2024-01-10T10:00:37;-2.90;99.90
24176;DHT22;12324;48.146;11.502;2024-01-10T10:03:09;-2.70;99.90
24176;DHT22;12324;48.146;11.502;2024-01-10T10:05:39;-2.40;99.90
24176;DHT22;12324;48.146;11.502;2024-01-10T10:08:11;-2.70;99.90
24176;DHT22;12324;48.146;11.502;2024-01-10T10:10:38;-2.70;99.90
24176;DHT22;12324;48.146;11.502;2024-01-10T12:27:41;-2.20;99.90
24176;DHT22;12324;48.146;11.502;2024-01-10T12:30:08;-0.90;99.90
24176;DHT22;12324;48.146;11.502;2024-01-10T12:32:36;-0.80;99.90
24176;DHT22;12324;48.146;11.502;2024-01-10T12:35:04;-1.10;99.90
24176;DHT22;12324;48.146;11.502;2024-01-10T12:37:31;-1.10;99.90
24176;DHT22;12324;48.146;11.502;2024-01-10T12:39:58;-0.60;99.90
24176;DHT22;12324;48.146;11.502;2024-01-10T12:42:25;-0.40;99.90
24176;DHT22;12324;48.146;11.502;2024-01-10T12:44:53;-0.20;99.90
24176;DHT22;12324;48.146;11.502;2024-01-10T12:47:21;-0.30;99.90
24176;DHT22;12324;48.146;11.502;2024-01-10T12:52:16;0.10;99.90
24176;DHT22;12324;48.146;11.502;2024-01-10T12:54:47;0.40;99.90
24176;DHT22;12324;48.146;11.502;2024-01-10T12:57:13;0.50;99.90
24176;DHT22;12324;48.146;11.502;2024-01-10T12:59:40;0.70;99.90
24176;DHT22;12324;48.146;11.502;2024-01-10T13:02:07;0.70;99.90
24176;DHT22;12324;48.146;11.502;2024-01-10T13:39:06;1.20;99.90
24176;DHT22;12324;48.146;11.502;2024-01-10T14:23:20;0.10;99.90
24176;DHT22;12324;48.146;11.502;2024-01-10T14:25:47;-2.30;99.90
24176;DHT22;12324;48.146;11.502;2024-01-10T14:28:14;-2.40;99.90
24176;DHT22;12324;48.146;11.502;2024-01-10T14:30:41;-2.60;99.90
24176;DHT22;12324;48.146;11.502;2024-01-10T14:33:07;-2.60;99.90
24176;DHT22;12324;48.146;11.502;2024-01-10T14:52:48;-2.70;99.90
24176;DHT22;12324;48.146;11.502;2024-01-10T14:55:16;-3.60;99.90
24176;DHT22;12324;48.146;11.502;2024-01-10T14:57:42;-3.50;99.90
24176;DHT22;12324;48.146;11.502;2024-01-10T15:29:45;-4.30;99.90
24176;DHT22;12324;48.146;11.502;2024-01-10T15:32:22;-4.00;99.90
24176;DHT22;12324;48.146;11.502;2024-01-10T15:34:49;-4.10;99.90
24176;DHT22;12324;48.146;11.502;2024-01-10T15:37:16;-4.10;99.90
24176;DHT22;12324;48.146;11.502;2024-01-10T15:39:42;-4.30;99.90
24176;DHT22;12324;48.146;11.502;2024-01-10T15:54:31;-4.40;99.90
24176;DHT22;12324;48.146;11.502;2024-01-10T15:57:06;-4.60;99.90
24176;DHT22;12324;48.146;11.502;2024-01-10T15:59:33;-4.40;99.90
24176;DHT22;12324;48.146;11.502;2024-01-10T16:02:00;-4.60;99.90
24176;DHT22;12324;48.146;11.502;2024-01-10T16:04:28;-4.70;99.90
24176;DHT22;12324;48.146;11.502;2024-01-10T16:06:55;-4.60;99.90
24176;DHT22;12324;48.146;11.502;2024-01-10T16:09:22;-4.60;99.90
24176;DHT22;12324;48.146;11.502;2024-01-10T16:11:49;-4.60;99.90
24176;DHT22;12324;48.146;11.502;2024-01-10T16:14:24;-4.50;99.90
24176;DHT22;12324;48.146;11.502;2024-01-10T16:16:51;-4.60;99.90
24176;DHT22;12324;48.146;11.502;2024-01-10T16:19:18;-4.50;99.90
24176;DHT22;12324;48.146;11.502;2024-01-10T16:21:46;-4.40;99.90
24176;DHT22;12324;48.146;11.502;2024-01-10T16:24:13;-4.40;99.90
24176;DHT22;12324;48.146;11.502;2024-01-10T16:26:39;-4.50;99.90
24176;DHT22;12324;48.146;11.502;2024-01-10T16:29:06;-4.40;99.90
24176;DHT22;12324;48.146;11.502;2024-01-10T16:31:33;-4.40;99.90
24176;DHT22;12324;48.146;11.502;2024-01-10T16:34:00;-4.50;99.90
24176;DHT22;12324;48.146;11.502;2024-01-10T16:36:27;-4.60;99.90
24176;DHT22;12324;48.146;11.502;2024-01-10T16:38:54;-4.60;99.90
24176;DHT22;12324;48.146;11.502;2024-01-10T16:41:22;-4.60;99.90
24176;DHT22;12324;48.146;11.502;2024-01-10T16:43:49;-4.60;99.90
24176;DHT22;12324;48.146;11.502;2024-01-10T16:46:16;-4.50;99.90
24176;DHT22;12324;48.146;11.502;2024-01-10T16:48:43;-4.40;99.90
24176;DHT22;12324;48.146;11.502;2024-01-10T16:51:10;-4.40;99.90
24176;DHT22;12324;48.146;11.502;2024-01-10T16:53:37;-4.30;99.90
24176;DHT22;12324;48.146;11.502;2024-01-10T16:56:04;-4.30;99.90
24176;DHT22;12324;48.146;11.502;2024-01-10T16:58:31;-4.20;99.90
24176;DHT22;12324;48.146;11.502;2024-01-10T17:00:58;-4.20;99.90
24176;DHT22;12324;48.146;11.502;2024-01-10T17:03:26;-4.20;99.90
24176;DHT22;12324;48.146;11.502;2024-01-10T17:05:52;-4.30;99.90
24176;DHT22;12324;48.146;11.502;2024-01-10T17:08:19;-4.40;99.90
24176;DHT22;12324;48.146;11.502;2024-01-10T17:10:49;-4.50;99.90
24176;DHT22;12324;48.146;11.502;2024-01-10T17:13:16;-4.40;99.90
24176;DHT22;12324;48.146;11.502;2024-01-10T17:15:43;-4.40;99.90
24176;DHT22;12324;48.146;11.502;2024-01-10T17:18:10;-4.30;99.90
24176;DHT22;12324;48.146;11.502;2024-01-10T17:20:37;-4.30;99.90
24176;DHT22;12324;48.146;11.502;2024-01-10T17:23:06;-4.20;99.90
24176;DHT22;12324;48.146;11.502;2024-01-10T17:25:32;-4.30;99.90
24176;DHT22;12324;48.146;11.502;2024-01-10T17:27:59;-4.30;99.90
24176;DHT22;12324;48.146;11.502;2024-01-10T17:30:26;-4.20;99.90
24176;DHT22;12324;48.146;11.502;2024-01-10T17:32:54;-4.30;99.90
24176;DHT22;12324;48.146;11.502;2024-01-10T17:35:21;-4.30;99.90
24176;DHT22;12324;48.146;11.502;2024-01-10T17:37:48;-4.30;99.90
24176;DHT22;12324;48.146;11.502;2024-01-10T17:40:15;-4.20;99.90
24176;DHT22;12324;48.146;11.502;2024-01-10T17:42:42;-4.30;99.90
24176;DHT22;12324;48.146;11.502;2024-01-10T17:45:09;-4.40;99.90
24176;DHT22;12324;48.146;11.502;2024-01-10T17:47:36;-4.30;99.90
24176;DHT22;12324;48.146;11.502;2024-01-10T17:50:04;-4.30;99.90
24176;DHT22;12324;48.146;11.502;2024-01-10T17:52:31;-4.30;99.90
24176;DHT22;12324;48.146;11.502;2024-01-10T17:54:58;-4.20;99.90
24176;DHT22;12324;48.146;11.502;2024-01-10T17:57:25;-4.30;99.90
24176;DHT22;12324;48.146;11.502;2024-01-10T17:59:54;-4.20;99.90
24176;DHT22;12324;48.146;11.502;2024-01-10T18:02:22;-4.20;99.90
24176;DHT22;12324;48.146;11.502;2024-01-10T18:04:49;-4.40;99.90
24176;DHT22;12324;48.146;11.502;2024-01-10T18:07:16;-4.30;99.90
24176;DHT22;12324;48.146;11.502;2024-01-10T18:09:43;-4.40;99.90
24176;DHT22;12324;48.146;11.502;2024-01-10T18:12:10;-4.40;99.90
24176;DHT22;12324;48.146;11.502;2024-01-10T18:14:36;-4.40;99.90
24176;DHT22;12324;48.146;11.502;2024-01-10T18:17:04;-4.40;99.90
24176;DHT22;12324;48.146;11.502;2024-01-10T18:19:31;-4.40;99.90
24176;DHT22;12324;48.146;11.502;2024-01-10T18:21:58;-4.40;99.90
24176;DHT22;12324;48.146;11.502;2024-01-10T18:24:25;-4.30;99.90
24176;DHT22;12324;48.146;11.502;2024-01-10T18:26:52;-4.40;99.90
24176;DHT22;12324;48.146;11.502;2024-01-10T18:29:19;-4.50;99.90
24176;DHT22;12324;48.146;11.502;2024-01-10T18:31:46;-4.40;99.90
24176;DHT22;12324;48.146;11.502;2024-01-10T18:34:13;-4.30;99.90
24176;DHT22;12324;48.146;11.502;2024-01-10T18:36:41;-4.40;99.90
24176;DHT22;12324;48.146;11.502;2024-01-10T18:39:07;-4.30;99.90
24176;DHT22;12324;48.146;11.502;2024-01-10T18:41:35;-4.30;99.90
24176;DHT22;12324;48.146;11.502;2024-01-10T18:44:03;-4.30;99.90
24176;DHT22;12324;48.146;11.502;2024-01-10T18:46:30;-4.20;99.90
24176;DHT22;12324;48.146;11.502;2024-01-10T18:48:57;-4.30;99.90
24176;DHT22;12324;48.146;11.502;2024-01-10T18:51:24;-4.40;99.90
24176;DHT22;12324;48.146;11.502;2024-01-10T18:53:51;-4.30;99.90
24176;DHT22;12324;48.146;11.502;2024-01-10T18:56:18;-4.20;99.90
24176;DHT22;12324;48.146;11.502;2024-01-10T18:58:45;-4.30;99.90
24176;DHT22;12324;48.146;11.502;2024-01-10T19:01:11;-4.30;99.90
24176;DHT22;12324;48.146;11.502;2024-01-10T19:03:38;-4.10;99.90
24176;DHT22;12324;48.146;11.502;2024-01-10T19:06:05;-4.10;99.90
24176;DHT22;12324;48.146;11.502;2024-01-10T19:08:35;-4.20;99.90
24176;DHT22;12324;48.146;11.502;2024-01-10T19:11:02;-4.20;99.90
24176;DHT22;12324;48.146;11.502;2024-01-10T19:13:32;-4.20;99.90
24176;DHT22;12324;48.146;11.502;2024-01-10T19:16:06;-4.20;99.90
24176;DHT22;12324;48.146;11.502;2024-01-10T19:18:36;-4.20;99.90
24176;DHT22;12324;48.146;11.502;2024-01-10T19:21:04;-4.40;99.90
24176;DHT22;12324;48.146;11.502;2024-01-10T19:23:31;-4.30;99.90
24176;DHT22;12324;48.146;11.502;2024-01-10T19:25:58;-4.30;99.90
24176;DHT22;12324;48.146;11.502;2024-01-10T19:28:26;-4.30;99.90
24176;DHT22;12324;48.146;11.502;2024-01-10T19:30:53;-4.20;99.90
24176;DHT22;12324;48.146;11.502;2024-01-10T19:33:24;-4.20;99.90
24176;DHT22;12324;48.146;11.502;2024-01-10T19:35:51;-4.10;99.90
24176;DHT22;12324;48.146;11.502;2024-01-10T19:38:18;-4.10;99.90
24176;DHT22;12324;48.146;11.502;2024-01-10T19:40:45;-4.10;99.90
24176;DHT22;12324;48.146;11.502;2024-01-10T19:43:21;-4.10;99.90
24176;DHT22;12324;48.146;11.502;2024-01-10T19:45:48;-4.10;99.90
24176;DHT22;12324;48.146;11.502;2024-01-10T19:48:15;-4.10;99.90
24176;DHT22;12324;48.146;11.502;2024-01-10T19:50:42;-4.20;99.90
24176;DHT22;12324;48.146;11.502;2024-01-10T19:53:09;-4.20;99.90
24176;DHT22;12324;48.146;11.502;2024-01-10T19:55:36;-4.20;99.90
24176;DHT22;12324;48.146;11.502;2024-01-10T19:58:03;-4.20;99.90
24176;DHT22;12324;48.146;11.502;2024-01-10T20:00:30;-4.10;99.90
24176;DHT22;12324;48.146;11.502;2024-01-10T20:02:58;-4.10;99.90
24176;DHT22;12324;48.146;11.502;2024-01-10T20:05:25;-4.10;99.90
24176;DHT22;12324;48.146;11.502;2024-01-10T20:07:52;-4.10;99.90
24176;DHT22;12324;48.146;11.502;2024-01-10T20:10:20;-4.10;99.90
24176;DHT22;12324;48.146;11.502;2024-01-10T20:12:46;-4.00;99.90
24176;DHT22;12324;48.146;11.502;2024-01-10T20:15:14;-4.00;99.90
24176;DHT22;12324;48.146;11.502;2024-01-10T20:17:41;-4.10;99.90
24176;DHT22;12324;48.146;11.502;2024-01-10T20:20:08;-4.10;99.90
24176;DHT22;12324;48.146;11.502;2024-01-10T20:22:35;-4.20;99.90
24176;DHT22;12324;48.146;11.502;2024-01-10T20:25:02;-4.20;99.90
24176;DHT22;12324;48.146;11.502;2024-01-10T20:27:29;-4.20;99.90
24176;DHT22;12324;48.146;11.502;2024-01-10T20:29:56;-4.20;99.90
24176;DHT22;12324;48.146;11.502;2024-01-10T20:32:23;-4.20;99.90
24176;DHT22;12324;48.146;11.502;2024-01-10T20:34:50;-4.20;99.90
24176;DHT22;12324;48.146;11.502;2024-01-10T20:37:21;-4.30;99.90
24176;DHT22;12324;48.146;11.502;2024-01-10T20:39:48;-4.20;99.90
24176;DHT22;12324;48.146;11.502;2024-01-10T20:42:15;-4.30;99.90
24176;DHT22;12324;48.146;11.502;2024-01-10T20:44:42;-4.30;99.90